Time;durP1;ratioP1;P1;durP2;ratioP2;P2;SDS_P1;SDS_P2;PMS_P1;PMS_P2;Temp;Humidity;BMP_temperature;BMP_pressure;BME280_temperature;BME280_humidity;BME280_pressure;Samples;Min_cycle;Max_cycle;Signal;HPM_P1;HPM_P2
2020/02/23 00:01:23;;;;;;;1.89;1.61;;;;;;;19.78;37.94;101525.72;;;;-55
2020/02/23 00:04:23;;;;;;;1.69;1.47;;;;;;;19.78;37.96;101529.74;;;;-55
2020/02/23 00:07:23;;;;;;;1.51;1.41;;;;;;;19.76;37.99;101514.81;;;;-55
2020/02/23 00:10:23;;;;;;;1.89;1.57;;;;;;;19.74;37.95;101501.11;;;;-56
2020/02/23 00:13:23;;;;;;;1.93;1.61;;;;;;;19.73;37.99;101514.08;;;;-55
2020/02/23 00:16:23;;;;;;;1.79;1.57;;;;;;;19.71;37.96;101522.38;;;;-56
2020/02/23 00:19:23;;;;;;;1.51;1.41;;;;;;;19.70;38.01;101526.52;;;;-55
2020/02/23 00:22:23;;;;;;;2.28;1.55;;;;;;;19.68;38.00;101527.51;;;;-55
2020/02/23 00:25:23;;;;;;;1.81;1.53;;;;;;;19.67;38.02;101515.10;;;;-55
2020/02/23 00:28:23;;;;;;;1.53;1.40;;;;;;;19.66;38.04;101507.56;;;;-55
2020/02/23 00:31:23;;;;;;;1.61;1.48;;;;;;;19.64;38.03;101505.98;;;;-55
2020/02/23 00:34:23;;;;;;;2.12;1.54;;;;;;;19.63;38.04;101500.95;;;;-56
2020/02/23 00:37:23;;;;;;;1.87;1.50;;;;;;;19.63;38.02;101496.41;;;;-55
2020/02/23 00:40:23;;;;;;;1.62;1.47;;;;;;;19.62;38.06;101496.69;;;;-54
2020/02/23 00:43:23;;;;;;;1.50;1.40;;;;;;;19.59;38.10;101490.93;;;;-55
2020/02/23 00:46:23;;;;;;;2.04;1.50;;;;;;;19.57;38.13;101477.41;;;;-56
2020/02/23 00:49:23;;;;;;;1.50;1.40;;;;;;;19.57;38.06;101466.84;;;;-55
2020/02/23 00:52:23;;;;;;;2.76;1.68;;;;;;;19.56;38.07;101464.26;;;;-55
2020/02/23 00:55:23;;;;;;;1.62;1.52;;;;;;;19.55;38.17;101470.58;;;;-55
2020/02/23 00:58:23;;;;;;;2.00;1.53;;;;;;;19.53;38.09;101459.80;;;;-55
2020/02/23 01:01:23;;;;;;;1.58;1.48;;;;;;;19.52;38.07;101466.26;;;;-55
2020/02/23 01:04:23;;;;;;;1.79;1.58;;;;;;;19.52;38.11;101469.88;;;;-55
2020/02/23 01:07:23;;;;;;;1.91;1.60;;;;;;;19.50;38.11;101470.95;;;;-55
2020/02/23 01:10:25;;;;;;;1.90;1.60;;;;;;;19.49;38.10;101483.22;;;;-56
2020/02/23 01:13:23;;;;;;;1.81;1.61;;;;;;;19.48;38.17;101482.71;;;;-55
2020/02/23 01:16:23;;;;;;;1.53;1.43;;;;;;;19.46;38.20;101489.47;;;;-55
2020/02/23 01:19:23;;;;;;;1.69;1.50;;;;;;;19.45;38.20;101482.71;;;;-56
2020/02/23 01:22:23;;;;;;;1.72;1.46;;;;;;;19.45;38.24;101485.94;;;;-56
2020/02/23 01:25:23;;;;;;;2.37;1.61;;;;;;;19.44;38.20;101482.97;;;;-55
2020/02/23 01:28:23;;;;;;;1.63;1.53;;;;;;;19.41;38.21;101485.18;;;;-55
2020/02/23 01:31:23;;;;;;;1.64;1.46;;;;;;;19.41;38.21;101485.30;;;;-55
2020/02/23 01:34:23;;;;;;;1.71;1.54;;;;;;;19.39;38.25;101484.45;;;;-55
2020/02/23 01:37:23;;;;;;;1.70;1.57;;;;;;;19.39;38.26;101499.75;;;;-56
2020/02/23 01:40:23;;;;;;;1.71;1.60;;;;;;;19.37;38.27;101493.83;;;;-56
2020/02/23 01:43:23;;;;;;;1.55;1.45;;;;;;;19.35;38.28;101485.48;;;;-56
2020/02/23 01:46:23;;;;;;;1.90;1.59;;;;;;;19.36;38.28;101484.22;;;;-56
2020/02/23 01:49:23;;;;;;;1.85;1.46;;;;;;;19.33;38.31;101468.95;;;;-56
2020/02/23 01:52:23;;;;;;;1.91;1.56;;;;;;;19.33;38.37;101466.98;;;;-55
2020/02/23 01:55:23;;;;;;;1.54;1.44;;;;;;;19.32;38.31;101447.06;;;;-55
2020/02/23 01:58:23;;;;;;;1.50;1.40;;;;;;;19.30;38.35;101441.17;;;;-56
2020/02/23 02:01:23;;;;;;;1.64;1.49;;;;;;;19.29;38.33;101436.33;;;;-56
2020/02/23 02:04:23;;;;;;;1.71;1.50;;;;;;;19.28;38.37;101433.42;;;;-55
2020/02/23 02:07:23;;;;;;;2.10;1.43;;;;;;;19.27;38.42;101416.32;;;;-55
2020/02/23 02:10:23;;;;;;;1.64;1.54;;;;;;;19.27;38.41;101417.54;;;;-55
2020/02/23 02:13:23;;;;;;;1.50;1.40;;;;;;;19.25;38.38;101414.92;;;;-55
2020/02/23 02:16:23;;;;;;;1.72;1.58;;;;;;;19.24;38.40;101412.79;;;;-56
2020/02/23 02:19:23;;;;;;;1.73;1.63;;;;;;;19.24;38.40;101422.48;;;;-55
2020/02/23 02:22:23;;;;;;;1.60;1.50;;;;;;;19.23;38.44;101420.59;;;;-56
2020/02/23 02:25:23;;;;;;;1.65;1.54;;;;;;;19.21;38.46;101419.98;;;;-56
2020/02/23 02:28:23;;;;;;;1.73;1.50;;;;;;;19.20;38.43;101422.77;;;;-55
2020/02/23 02:31:23;;;;;;;1.60;1.50;;;;;;;19.20;38.44;101415.55;;;;-55
2020/02/23 02:34:26;;;;;;;1.70;1.43;;;;;;;19.19;38.42;101406.89;;;;-56
2020/02/23 02:38:23;;;;;;;1.40;1.30;;;;;;;19.17;38.46;101390.52;;;;-55
2020/02/23 02:41:23;;;;;;;1.51;1.41;;;;;;;19.17;38.48;101395.39;;;;-55
2020/02/23 02:44:23;;;;;;;1.59;1.49;;;;;;;19.16;38.50;101393.88;;;;-55
2020/02/23 02:47:23;;;;;;;2.03;1.49;;;;;;;19.16;38.50;101384.61;;;;-56
2020/02/23 02:50:23;;;;;;;1.45;1.33;;;;;;;19.14;38.51;101380.52;;;;-55
2020/02/23 02:53:23;;;;;;;1.50;1.40;;;;;;;19.13;38.54;101372.84;;;;-56
2020/02/23 02:56:23;;;;;;;1.42;1.31;;;;;;;19.12;38.52;101371.66;;;;-55
2020/02/23 02:59:23;;;;;;;1.51;1.38;;;;;;;19.12;38.50;101382.09;;;;-55
2020/02/23 03:02:23;;;;;;;1.50;1.40;;;;;;;19.11;38.53;101366.06;;;;-55
2020/02/23 03:05:23;;;;;;;1.69;1.56;;;;;;;19.09;38.51;101365.22;;;;-54
2020/02/23 03:08:23;;;;;;;1.45;1.35;;;;;;;19.08;38.55;101361.77;;;;-55
2020/02/23 03:11:23;;;;;;;1.56;1.46;;;;;;;19.08;38.53;101366.55;;;;-54
2020/02/23 03:14:23;;;;;;;1.75;1.47;;;;;;;19.07;38.51;101363.27;;;;-54
2020/02/23 03:17:23;;;;;;;1.50;1.40;;;;;;;19.06;38.59;101371.73;;;;-54
2020/02/23 03:20:23;;;;;;;1.51;1.40;;;;;;;19.06;38.55;101373.29;;;;-54
2020/02/23 03:23:23;;;;;;;1.45;1.35;;;;;;;19.05;38.53;101366.78;;;;-54
2020/02/23 03:26:23;;;;;;;1.44;1.34;;;;;;;19.04;38.58;101372.95;;;;-55
2020/02/23 03:29:23;;;;;;;1.77;1.48;;;;;;;19.04;38.51;101376.64;;;;-54
2020/02/23 03:32:23;;;;;;;1.45;1.35;;;;;;;19.02;38.57;101370.66;;;;-55
2020/02/23 03:35:23;;;;;;;1.55;1.42;;;;;;;19.02;38.58;101354.91;;;;-55
2020/02/23 03:38:23;;;;;;;1.51;1.40;;;;;;;19.01;38.58;101354.42;;;;-54
2020/02/23 03:41:23;;;;;;;1.68;1.48;;;;;;;19.00;38.62;101344.07;;;;-55
2020/02/23 03:44:23;;;;;;;1.41;1.31;;;;;;;18.99;38.60;101345.77;;;;-54
2020/02/23 03:47:23;;;;;;;1.62;1.49;;;;;;;18.99;38.63;101344.25;;;;-54
2020/02/23 03:50:23;;;;;;;1.59;1.46;;;;;;;18.98;38.60;101349.05;;;;-54
2020/02/23 03:53:23;;;;;;;1.62;1.41;;;;;;;18.97;38.62;101348.66;;;;-54
2020/02/23 03:56:23;;;;;;;1.36;1.20;;;;;;;18.96;38.67;101345.85;;;;-54
2020/02/23 03:59:23;;;;;;;1.57;1.45;;;;;;;18.96;38.65;101347.53;;;;-54
2020/02/23 04:02:23;;;;;;;1.56;1.40;;;;;;;18.95;38.65;101350.07;;;;-54
2020/02/23 04:05:23;;;;;;;1.51;1.40;;;;;;;18.94;38.71;101346.06;;;;-54
2020/02/23 04:08:23;;;;;;;1.73;1.54;;;;;;;18.94;38.69;101331.43;;;;-54
2020/02/23 04:11:23;;;;;;;1.43;1.33;;;;;;;18.94;38.68;101319.94;;;;-54
2020/02/23 04:14:23;;;;;;;1.47;1.37;;;;;;;18.93;38.67;101316.47;;;;-54
2020/02/23 04:17:23;;;;;;;1.65;1.33;;;;;;;18.92;38.67;101321.83;;;;-54
2020/02/23 04:20:23;;;;;;;2.29;1.50;;;;;;;18.91;38.71;101308.05;;;;-54
2020/02/23 04:23:23;;;;;;;1.42;1.32;;;;;;;18.91;38.67;101298.50;;;;-54
2020/02/23 04:26:23;;;;;;;1.63;1.34;;;;;;;18.90;38.68;101302.40;;;;-54
2020/02/23 04:29:23;;;;;;;1.44;1.34;;;;;;;18.89;38.72;101313.96;;;;-54
2020/02/23 04:32:23;;;;;;;1.53;1.40;;;;;;;18.88;38.70;101303.86;;;;-54
2020/02/23 04:35:23;;;;;;;1.59;1.49;;;;;;;18.88;38.73;101296.98;;;;-54
2020/02/23 04:38:23;;;;;;;1.59;1.49;;;;;;;18.88;38.73;101289.89;;;;-54
2020/02/23 04:41:23;;;;;;;1.57;1.47;;;;;;;18.88;38.74;101287.44;;;;-54
2020/02/23 04:44:23;;;;;;;1.44;1.34;;;;;;;18.87;38.76;101291.84;;;;-54
2020/02/23 04:47:23;;;;;;;1.49;1.39;;;;;;;18.88;38.71;101299.22;;;;-54
2020/02/23 04:50:23;;;;;;;1.44;1.34;;;;;;;18.89;38.73;101301.89;;;;-55
2020/02/23 04:53:23;;;;;;;1.37;1.27;;;;;;;18.88;38.74;101306.88;;;;-55
2020/02/23 04:56:23;;;;;;;1.86;1.39;;;;;;;18.90;38.75;101309.48;;;;-55
2020/02/23 04:59:23;;;;;;;1.78;1.42;;;;;;;18.92;38.75;101297.45;;;;-55
2020/02/23 05:02:23;;;;;;;1.41;1.31;;;;;;;18.94;38.74;101292.83;;;;-55
2020/02/23 05:05:23;;;;;;;1.41;1.31;;;;;;;18.96;38.66;101280.30;;;;-55
2020/02/23 05:08:23;;;;;;;2.09;1.47;;;;;;;19.00;38.74;101271.59;;;;-55
2020/02/23 05:11:23;;;;;;;1.45;1.31;;;;;;;19.02;38.69;101274.89;;;;-55
2020/02/23 05:14:23;;;;;;;1.46;1.35;;;;;;;19.07;38.72;101285.97;;;;-54
2020/02/23 05:17:23;;;;;;;1.41;1.31;;;;;;;19.10;38.76;101287.66;;;;-55
2020/02/23 05:20:23;;;;;;;1.34;1.24;;;;;;;19.14;38.64;101281.34;;;;-55
2020/02/23 05:23:23;;;;;;;1.41;1.31;;;;;;;19.18;38.79;101254.95;;;;-55
2020/02/23 05:26:23;;;;;;;1.71;1.37;;;;;;;19.21;38.79;101254.41;;;;-55
2020/02/23 05:29:23;;;;;;;5.49;1.53;;;;;;;19.18;38.99;101230.39;;;;-50
2020/02/23 05:32:23;;;;;;;2.11;1.68;;;;;;;19.04;40.02;101236.73;;;;-52
2020/02/23 05:35:23;;;;;;;3.20;1.85;;;;;;;19.01;40.12;101234.22;;;;-51
2020/02/23 05:38:23;;;;;;;3.80;1.91;;;;;;;18.93;40.72;101227.65;;;;-51
2020/02/23 05:41:23;;;;;;;4.92;1.70;;;;;;;19.02;39.92;101206.98;;;;-54
2020/02/23 05:44:23;;;;;;;4.23;1.88;;;;;;;19.08;39.89;101213.77;;;;-51
2020/02/23 05:47:23;;;;;;;2.43;1.69;;;;;;;19.14;39.86;101219.06;;;;-51
2020/02/23 05:50:23;;;;;;;2.61;1.75;;;;;;;19.18;39.83;101217.50;;;;-50
2020/02/23 05:53:23;;;;;;;2.71;1.91;;;;;;;19.21;39.85;101219.17;;;;-51
2020/02/23 05:56:23;;;;;;;3.15;1.80;;;;;;;19.24;39.65;101216.07;;;;-51
2020/02/23 05:59:23;;;;;;;3.06;1.78;;;;;;;19.27;39.69;101218.91;;;;-52
2020/02/23 06:02:23;;;;;;;2.76;1.80;;;;;;;19.29;39.57;101221.11;;;;-54
2020/02/23 06:05:23;;;;;;;3.17;1.80;;;;;;;19.32;39.63;101222.89;;;;-52
2020/02/23 06:08:23;;;;;;;3.57;1.85;;;;;;;19.34;39.63;101216.14;;;;-52
2020/02/23 06:11:23;;;;;;;2.47;1.71;;;;;;;19.36;39.66;101220.95;;;;-53
2020/02/23 06:14:23;;;;;;;3.16;1.80;;;;;;;19.40;39.58;101213.42;;;;-52
2020/02/23 06:17:23;;;;;;;1.79;1.69;;;;;;;19.41;39.63;101207.12;;;;-52
2020/02/23 06:20:23;;;;;;;4.39;1.87;;;;;;;19.43;39.52;101197.83;;;;-54
2020/02/23 06:23:23;;;;;;;2.61;1.69;;;;;;;19.42;39.36;101192.03;;;;-54
2020/02/23 06:26:23;;;;;;;3.13;1.66;;;;;;;19.42;39.38;101189.80;;;;-54
2020/02/23 06:29:23;;;;;;;3.73;1.61;;;;;;;19.40;39.22;101189.58;;;;-54
2020/02/23 06:32:23;;;;;;;1.69;1.57;;;;;;;19.40;39.17;101203.14;;;;-54
2020/02/23 06:35:23;;;;;;;2.15;1.54;;;;;;;19.39;39.17;101193.48;;;;-54
2020/02/23 06:38:23;;;;;;;2.23;1.65;;;;;;;19.39;39.12;101185.50;;;;-54
2020/02/23 06:41:23;;;;;;;2.71;1.59;;;;;;;19.38;39.11;101194.20;;;;-55
2020/02/23 06:47:37;;;;;;;4.01;1.81;;;;;;;19.36;39.07;101167.58;;;;-54
2020/02/23 06:50:27;;;;;;;2.03;1.53;;;;;;;19.36;39.04;101173.20;;;;-54
2020/02/23 06:53:23;;;;;;;2.58;1.61;;;;;;;19.35;39.12;101171.08;;;;-55
2020/02/23 06:56:23;;;;;;;1.59;1.47;;;;;;;19.33;39.03;101147.19;;;;-54
2020/02/23 06:59:23;;;;;;;1.70;1.60;;;;;;;19.33;38.96;101146.34;;;;-55
2020/02/23 07:02:23;;;;;;;2.06;1.61;;;;;;;19.33;38.99;101142.72;;;;-54
2020/02/23 07:05:23;;;;;;;1.60;1.50;;;;;;;19.32;39.02;101134.06;;;;-55
2020/02/23 07:08:23;;;;;;;1.51;1.41;;;;;;;19.32;38.97;101145.24;;;;-54
2020/02/23 07:11:23;;;;;;;1.61;1.50;;;;;;;19.31;38.98;101147.87;;;;-54
2020/02/23 07:14:23;;;;;;;1.58;1.47;;;;;;;19.30;38.97;101134.25;;;;-55
2020/02/23 07:17:23;;;;;;;2.31;1.53;;;;;;;19.29;38.92;101123.69;;;;-54
2020/02/23 07:20:23;;;;;;;1.64;1.50;;;;;;;19.28;38.95;101131.83;;;;-54
2020/02/23 07:23:23;;;;;;;2.23;1.38;;;;;;;19.29;38.95;101125.64;;;;-59
2020/02/23 07:26:24;;;;;;;2.25;1.43;;;;;;;19.27;38.97;101151.38;;;;-60
2020/02/23 07:29:24;;;;;;;1.63;1.51;;;;;;;19.26;38.99;101151.71;;;;-59
2020/02/23 07:32:25;;;;;;;1.67;1.49;;;;;;;19.26;38.99;101133.95;;;;-60
2020/02/23 07:35:23;;;;;;;1.60;1.50;;;;;;;19.26;38.94;101117.98;;;;-59
2020/02/23 07:38:23;;;;;;;2.38;1.48;;;;;;;19.24;38.92;101102.30;;;;-59
2020/02/23 07:41:23;;;;;;;1.91;1.57;;;;;;;19.24;38.93;101103.70;;;;-59
2020/02/23 07:44:23;;;;;;;1.67;1.35;;;;;;;19.24;38.93;101092.14;;;;-59
2020/02/23 07:47:23;;;;;;;2.34;1.60;;;;;;;19.22;38.98;101072.27;;;;-59
2020/02/23 07:50:23;;;;;;;1.59;1.49;;;;;;;19.21;38.98;101059.94;;;;-60
2020/02/23 07:53:23;;;;;;;2.38;1.50;;;;;;;19.21;38.97;101050.45;;;;-60
2020/02/23 07:56:23;;;;;;;1.53;1.41;;;;;;;19.20;38.94;101033.31;;;;-60
2020/02/23 07:59:23;;;;;;;1.52;1.42;;;;;;;19.19;38.95;101032.36;;;;-59
2020/02/23 08:02:23;;;;;;;1.89;1.59;;;;;;;19.18;38.94;101032.14;;;;-60
2020/02/23 08:05:23;;;;;;;1.95;1.40;;;;;;;19.18;38.99;101012.44;;;;-60
2020/02/23 08:08:23;;;;;;;1.61;1.51;;;;;;;19.17;38.93;101004.95;;;;-60
2020/02/23 08:11:23;;;;;;;1.51;1.40;;;;;;;19.15;38.95;101010.14;;;;-59
2020/02/23 08:14:23;;;;;;;1.66;1.56;;;;;;;19.16;38.95;100995.92;;;;-60
2020/02/23 08:17:23;;;;;;;2.69;1.43;;;;;;;19.15;39.00;101002.63;;;;-60
2020/02/23 08:20:23;;;;;;;1.82;1.60;;;;;;;19.14;38.95;101005.46;;;;-60
2020/02/23 08:23:23;;;;;;;1.61;1.47;;;;;;;19.13;38.99;100997.03;;;;-60
2020/02/23 08:26:23;;;;;;;1.69;1.45;;;;;;;19.12;38.97;100992.42;;;;-60
2020/02/23 08:29:23;;;;;;;1.61;1.50;;;;;;;19.11;38.97;100967.48;;;;-60
2020/02/23 08:32:23;;;;;;;1.53;1.43;;;;;;;19.11;38.95;100953.35;;;;-60
2020/02/23 08:35:23;;;;;;;1.49;1.39;;;;;;;19.09;38.95;100951.52;;;;-60
2020/02/23 08:38:23;;;;;;;1.57;1.47;;;;;;;19.08;38.98;100962.40;;;;-59
2020/02/23 08:41:23;;;;;;;1.41;1.31;;;;;;;19.07;39.01;100960.07;;;;-59
2020/02/23 08:44:23;;;;;;;1.50;1.40;;;;;;;19.08;38.97;100959.89;;;;-60
2020/02/23 08:47:23;;;;;;;1.43;1.33;;;;;;;19.05;39.01;100941.77;;;;-60
2020/02/23 08:50:23;;;;;;;1.35;1.25;;;;;;;19.06;38.99;100934.17;;;;-59
2020/02/23 08:53:23;;;;;;;1.53;1.42;;;;;;;19.05;38.96;100932.45;;;;-59
2020/02/23 08:56:23;;;;;;;1.33;1.23;;;;;;;19.05;38.96;100927.32;;;;-60
2020/02/23 08:59:23;;;;;;;1.56;1.46;;;;;;;19.03;38.98;100916.38;;;;-54
2020/02/23 09:02:26;;;;;;;1.48;1.38;;;;;;;19.04;38.95;100913.88;;;;-54
2020/02/23 09:05:23;;;;;;;1.51;1.40;;;;;;;19.02;38.99;100904.09;;;;-55
2020/02/23 09:08:23;;;;;;;1.54;1.44;;;;;;;19.02;39.02;100900.48;;;;-54
2020/02/23 09:11:23;;;;;;;1.51;1.40;;;;;;;19.01;38.99;100912.41;;;;-54
2020/02/23 09:14:23;;;;;;;1.38;1.28;;;;;;;19.01;39.00;100917.09;;;;-55
2020/02/23 09:17:23;;;;;;;1.50;1.40;;;;;;;19.00;38.98;100915.37;;;;-54
2020/02/23 09:20:23;;;;;;;1.71;1.50;;;;;;;19.00;39.14;100919.95;;;;-56
2020/02/23 09:23:23;;;;;;;1.49;1.39;;;;;;;19.01;39.46;100917.94;;;;-51
2020/02/23 09:26:23;;;;;;;1.41;1.31;;;;;;;19.01;39.54;100903.44;;;;-51
2020/02/23 09:29:23;;;;;;;1.50;1.40;;;;;;;19.02;39.61;100897.30;;;;-52
2020/02/23 09:32:47;;;;;;;1.60;1.37;;;;;;;19.02;39.73;100878.66;;;;-52
2020/02/23 09:35:23;;;;;;;1.81;1.44;;;;;;;19.03;39.73;100908.57;;;;-54
2020/02/23 09:38:23;;;;;;;2.09;1.44;;;;;;;19.05;39.75;100893.77;;;;-54
2020/02/23 09:41:23;;;;;;;1.47;1.37;;;;;;;19.06;39.86;100889.13;;;;-50
2020/02/23 09:44:23;;;;;;;3.43;1.46;;;;;;;19.07;39.71;100882.66;;;;-53
2020/02/23 09:47:23;;;;;;;3.52;1.44;;;;;;;19.07;39.69;100892.61;;;;-50
2020/02/23 09:50:23;;;;;;;3.79;1.49;;;;;;;19.09;39.84;100889.53;;;;-50
2020/02/23 09:53:23;;;;;;;3.13;1.45;;;;;;;19.12;39.96;100885.51;;;;-51
2020/02/23 09:56:23;;;;;;;1.97;1.50;;;;;;;19.17;40.14;100902.42;;;;-57
2020/02/23 09:59:23;;;;;;;1.87;1.40;;;;;;;19.22;40.10;100906.11;;;;-58
2020/02/23 10:02:23;;;;;;;1.66;1.40;;;;;;;19.27;40.14;100905.58;;;;-58
2020/02/23 10:05:23;;;;;;;1.89;1.40;;;;;;;19.30;40.31;100880.63;;;;-58
2020/02/23 10:08:23;;;;;;;1.71;1.50;;;;;;;19.36;40.28;100877.42;;;;-58
2020/02/23 10:11:23;;;;;;;2.57;1.49;;;;;;;19.43;40.36;100887.29;;;;-52
2020/02/23 10:14:23;;;;;;;2.78;1.60;;;;;;;19.46;40.28;100889.62;;;;-62
2020/02/23 10:17:23;;;;;;;3.68;1.50;;;;;;;19.49;40.33;100875.81;;;;-52
2020/02/23 10:20:23;;;;;;;1.63;1.49;;;;;;;19.53;40.27;100865.69;;;;-59
2020/02/23 10:23:23;;;;;;;1.78;1.56;;;;;;;19.57;40.23;100870.58;;;;-55
2020/02/23 10:26:22;;;;;;;2.44;1.70;;;;;;;19.60;40.25;100872.02;;;;-51
2020/02/23 10:29:23;;;;;;;2.99;1.90;;;;;;;19.63;40.12;100868.72;;;;-52
2020/02/23 10:32:23;;;;;;;2.80;2.00;;;;;;;19.67;40.16;100885.17;;;;-51
2020/02/23 10:35:23;;;;;;;3.23;2.02;;;;;;;19.71;40.30;100874.03;;;;-51
2020/02/23 10:38:23;;;;;;;2.87;2.07;;;;;;;19.72;40.20;100875.93;;;;-47
2020/02/23 10:41:23;;;;;;;3.73;2.20;;;;;;;19.80;40.21;100872.66;;;;-52
2020/02/23 10:44:23;;;;;;;3.74;2.09;;;;;;;19.83;40.21;100852.62;;;;-51
2020/02/23 10:47:23;;;;;;;5.81;2.15;;;;;;;19.85;40.22;100836.20;;;;-51
2020/02/23 10:50:23;;;;;;;2.83;2.03;;;;;;;19.90;40.17;100833.75;;;;-51
2020/02/23 10:53:23;;;;;;;4.13;2.05;;;;;;;19.92;40.23;100847.66;;;;-48
2020/02/23 10:56:23;;;;;;;4.01;2.11;;;;;;;19.95;40.21;100833.56;;;;-46
2020/02/23 10:59:25;;;;;;;4.50;2.03;;;;;;;19.96;40.10;100847.58;;;;-48
2020/02/23 11:02:23;;;;;;;2.99;2.09;;;;;;;19.99;40.08;100848.60;;;;-49
2020/02/23 11:05:23;;;;;;;2.67;2.01;;;;;;;20.00;39.95;100857.14;;;;-47
2020/02/23 11:08:23;;;;;;;4.47;1.91;;;;;;;20.01;39.91;100865.51;;;;-52
2020/02/23 11:11:23;;;;;;;3.18;2.00;;;;;;;20.02;39.73;100861.60;;;;-53
2020/02/23 11:14:23;;;;;;;5.87;2.03;;;;;;;20.03;39.88;100845.21;;;;-54
2020/02/23 11:17:23;;;;;;;3.01;2.10;;;;;;;20.03;39.56;100836.44;;;;-54
2020/02/23 11:20:23;;;;;;;2.45;1.81;;;;;;;20.02;39.50;100841.41;;;;-54
2020/02/23 11:23:23;;;;;;;3.10;1.95;;;;;;;20.02;39.49;100842.32;;;;-54
2020/02/23 11:26:22;;;;;;;3.05;2.05;;;;;;;20.03;39.40;100815.94;;;;-54
2020/02/23 11:29:23;;;;;;;4.05;1.84;;;;;;;20.02;39.39;100806.37;;;;-54
2020/02/23 11:32:22;;;;;;;3.07;1.89;;;;;;;20.01;39.35;100818.47;;;;-54
2020/02/23 11:35:23;;;;;;;3.47;1.84;;;;;;;20.02;39.25;100832.66;;;;-54
2020/02/23 11:38:23;;;;;;;2.96;1.92;;;;;;;20.02;39.25;100830.92;;;;-54
2020/02/23 11:41:23;;;;;;;2.19;1.89;;;;;;;20.01;39.11;100821.91;;;;-54
2020/02/23 11:44:23;;;;;;;4.94;2.08;;;;;;;20.02;39.12;100817.67;;;;-54
2020/02/23 11:47:23;;;;;;;3.83;1.90;;;;;;;20.02;39.04;100801.17;;;;-54
2020/02/23 11:50:23;;;;;;;2.41;1.89;;;;;;;20.04;39.10;100784.12;;;;-54
2020/02/23 11:53:23;;;;;;;3.31;2.06;;;;;;;20.04;39.08;100774.91;;;;-54
2020/02/23 11:56:23;;;;;;;3.07;1.89;;;;;;;20.03;38.93;100766.59;;;;-54
2020/02/23 11:59:23;;;;;;;2.99;1.99;;;;;;;20.06;38.91;100758.73;;;;-54
2020/02/23 12:02:23;;;;;;;2.23;1.91;;;;;;;20.06;38.98;100778.56;;;;-54
2020/02/23 12:05:23;;;;;;;2.49;1.72;;;;;;;20.07;38.93;100763.92;;;;-54
2020/02/23 12:08:23;;;;;;;2.03;1.74;;;;;;;20.09;38.99;100739.94;;;;-54
2020/02/23 12:11:23;;;;;;;3.23;1.95;;;;;;;20.11;38.94;100735.44;;;;-55
2020/02/23 12:14:23;;;;;;;2.45;1.87;;;;;;;20.10;38.93;100745.52;;;;-54
2020/02/23 12:17:23;;;;;;;2.87;1.63;;;;;;;20.11;38.91;100720.34;;;;-54
2020/02/23 12:20:23;;;;;;;3.00;1.89;;;;;;;20.13;38.89;100723.85;;;;-54
2020/02/23 12:23:22;;;;;;;2.72;1.90;;;;;;;20.12;38.81;100728.44;;;;-54
2020/02/23 12:26:22;;;;;;;2.33;1.80;;;;;;;20.14;38.91;100730.10;;;;-54
2020/02/23 12:29:23;;;;;;;2.24;1.68;;;;;;;20.15;38.83;100721.36;;;;-54
2020/02/23 12:32:23;;;;;;;2.65;1.87;;;;;;;20.17;38.83;100727.89;;;;-54
2020/02/23 12:35:23;;;;;;;3.25;1.81;;;;;;;20.17;38.75;100743.94;;;;-54
2020/02/23 12:38:23;;;;;;;3.21;1.86;;;;;;;20.18;38.75;100743.31;;;;-54
2020/02/23 12:41:23;;;;;;;2.70;1.83;;;;;;;20.19;38.81;100736.05;;;;-54
2020/02/23 12:44:23;;;;;;;2.03;1.79;;;;;;;20.22;38.73;100712.36;;;;-54
2020/02/23 12:47:23;;;;;;;2.97;1.78;;;;;;;20.21;38.73;100718.36;;;;-54
2020/02/23 12:50:23;;;;;;;2.51;1.90;;;;;;;20.22;38.70;100719.41;;;;-54
2020/02/23 12:53:23;;;;;;;2.13;1.63;;;;;;;20.23;38.71;100720.80;;;;-54
2020/02/23 12:56:23;;;;;;;2.32;1.93;;;;;;;20.24;38.69;100728.45;;;;-54
2020/02/23 12:59:23;;;;;;;2.81;1.80;;;;;;;20.24;38.63;100724.36;;;;-54
2020/02/23 13:02:23;;;;;;;2.43;1.71;;;;;;;20.24;38.59;100722.31;;;;-54
2020/02/23 13:05:23;;;;;;;2.27;1.71;;;;;;;20.25;38.63;100722.19;;;;-55
2020/02/23 13:08:23;;;;;;;2.27;1.73;;;;;;;20.24;38.60;100710.27;;;;-54
2020/02/23 13:11:23;;;;;;;2.33;1.71;;;;;;;20.26;38.57;100700.53;;;;-54
2020/02/23 13:14:23;;;;;;;2.39;1.84;;;;;;;20.25;38.59;100706.46;;;;-54
2020/02/23 13:17:23;;;;;;;1.85;1.65;;;;;;;20.23;38.57;100700.84;;;;-54
2020/02/23 13:20:22;;;;;;;1.91;1.67;;;;;;;20.24;38.57;100705.98;;;;-54
2020/02/23 13:23:23;;;;;;;2.29;1.67;;;;;;;20.25;38.58;100705.69;;;;-54
2020/02/23 13:26:22;;;;;;;3.47;1.79;;;;;;;20.24;38.82;100701.28;;;;-59
2020/02/23 13:29:22;;;;;;;3.49;1.70;;;;;;;20.23;39.08;100704.13;;;;-55
2020/02/23 13:32:23;;;;;;;2.01;1.60;;;;;;;20.23;39.18;100692.78;;;;-51
2020/02/23 13:35:23;;;;;;;2.11;1.73;;;;;;;20.23;39.29;100665.95;;;;-53
2020/02/23 13:38:23;;;;;;;1.89;1.73;;;;;;;20.22;39.22;100653.50;;;;-52
2020/02/23 13:41:23;;;;;;;3.59;1.73;;;;;;;20.23;39.48;100619.50;;;;-56
2020/02/23 13:44:23;;;;;;;2.30;1.82;;;;;;;20.24;39.30;100625.75;;;;-58
2020/02/23 13:47:23;;;;;;;1.92;1.69;;;;;;;20.24;39.39;100615.80;;;;-56
2020/02/23 13:50:22;;;;;;;2.01;1.78;;;;;;;20.25;39.45;100620.26;;;;-57
2020/02/23 13:53:22;;;;;;;2.99;1.79;;;;;;;20.27;39.63;100610.41;;;;-53
2020/02/23 13:56:23;;;;;;;4.03;1.83;;;;;;;20.28;39.26;100596.20;;;;-52
2020/02/23 13:59:23;;;;;;;3.16;1.79;;;;;;;20.29;39.09;100582.33;;;;-53
2020/02/23 14:02:23;;;;;;;2.55;1.61;;;;;;;20.28;39.20;100591.38;;;;-53
2020/02/23 14:05:23;;;;;;;3.07;1.85;;;;;;;20.29;39.14;100598.47;;;;-52
2020/02/23 14:08:23;;;;;;;3.15;1.64;;;;;;;20.29;39.02;100591.59;;;;-52
2020/02/23 14:11:23;;;;;;;2.55;1.50;;;;;;;20.31;39.02;100601.87;;;;-52
2020/02/23 14:14:23;;;;;;;1.99;1.73;;;;;;;20.30;38.96;100620.41;;;;-52
2020/02/23 14:18:21;;;;;;;2.41;1.70;;;;;;;20.32;38.88;100618.69;;;;-52
2020/02/23 14:21:27;;;;;;;3.01;1.66;;;;;;;20.32;38.87;100646.63;;;;-52
2020/02/23 14:24:22;;;;;;;2.00;1.60;;;;;;;20.32;38.85;100642.44;;;;-52
2020/02/23 14:27:22;;;;;;;1.88;1.65;;;;;;;20.32;38.82;100650.32;;;;-52
2020/02/23 14:30:23;;;;;;;3.33;1.61;;;;;;;20.34;38.80;100657.05;;;;-53
2020/02/23 14:33:23;;;;;;;2.96;1.65;;;;;;;20.33;38.72;100608.93;;;;-52
2020/02/23 14:36:23;;;;;;;2.46;1.67;;;;;;;20.34;38.78;100605.73;;;;-52
2020/02/23 14:39:23;;;;;;;1.73;1.61;;;;;;;20.34;38.70;100616.80;;;;-52
2020/02/23 14:42:23;;;;;;;2.52;1.48;;;;;;;20.34;38.71;100623.84;;;;-52
2020/02/23 14:45:23;;;;;;;1.81;1.60;;;;;;;20.34;38.69;100614.45;;;;-52
2020/02/23 14:48:22;;;;;;;2.14;1.60;;;;;;;20.34;38.65;100601.44;;;;-52
2020/02/23 14:51:22;;;;;;;1.59;1.40;;;;;;;20.33;38.67;100597.30;;;;-52
2020/02/23 14:54:23;;;;;;;2.85;1.65;;;;;;;20.34;38.65;100611.66;;;;-52
2020/02/23 14:57:23;;;;;;;1.70;1.60;;;;;;;20.34;38.66;100585.33;;;;-52
2020/02/23 15:00:23;;;;;;;1.69;1.55;;;;;;;20.33;38.65;100609.55;;;;-53
2020/02/23 15:03:23;;;;;;;1.62;1.43;;;;;;;20.36;39.24;100610.57;;;;-51
2020/02/23 15:06:23;;;;;;;2.07;1.50;;;;;;;20.37;39.70;100597.20;;;;-50
2020/02/23 15:09:23;;;;;;;1.81;1.61;;;;;;;20.39;39.73;100601.64;;;;-52
2020/02/23 15:12:23;;;;;;;3.37;1.69;;;;;;;20.40;39.69;100595.59;;;;-53
2020/02/23 15:15:22;;;;;;;3.80;1.61;;;;;;;20.38;39.58;100587.67;;;;-49
2020/02/23 15:18:22;;;;;;;1.88;1.61;;;;;;;20.37;39.79;100594.85;;;;-54
2020/02/23 15:21:22;;;;;;;4.65;1.71;;;;;;;20.41;39.82;100591.00;;;;-56
2020/02/23 15:24:22;;;;;;;2.53;1.57;;;;;;;20.40;39.75;100604.04;;;;-51
2020/02/23 15:27:22;;;;;;;2.42;1.71;;;;;;;20.42;39.83;100620.63;;;;-52
2020/02/23 15:30:22;;;;;;;4.83;1.61;;;;;;;20.44;39.73;100620.82;;;;-52
2020/02/23 15:33:23;;;;;;;3.05;1.59;;;;;;;20.45;39.79;100613.58;;;;-54
2020/02/23 15:36:23;;;;;;;2.53;1.50;;;;;;;20.46;39.84;100617.05;;;;-53
2020/02/23 15:39:23;;;;;;;3.17;1.59;;;;;;;20.48;39.54;100614.18;;;;-53
2020/02/23 15:42:23;;;;;;;3.05;1.66;;;;;;;20.47;39.41;100630.28;;;;-53
2020/02/23 15:45:22;;;;;;;3.14;1.65;;;;;;;20.48;39.28;100630.66;;;;-53
2020/02/23 15:48:22;;;;;;;2.10;1.50;;;;;;;20.49;39.21;100635.59;;;;-53
2020/02/23 15:51:22;;;;;;;3.16;1.73;;;;;;;20.48;39.11;100646.16;;;;-53
2020/02/23 15:54:23;;;;;;;2.44;1.55;;;;;;;20.44;39.27;100653.80;;;;-51
2020/02/23 15:57:23;;;;;;;5.37;1.61;;;;;;;20.44;39.40;100668.19;;;;-58
2020/02/23 16:00:23;;;;;;;4.18;1.61;;;;;;;20.46;39.48;100680.47;;;;-58
2020/02/23 16:03:23;;;;;;;4.08;1.66;;;;;;;20.46;39.30;100658.15;;;;-57
2020/02/23 16:06:23;;;;;;;3.37;1.61;;;;;;;20.46;39.22;100654.13;;;;-58
2020/02/23 16:09:23;;;;;;;2.41;1.50;;;;;;;20.47;39.22;100656.75;;;;-57
2020/02/23 16:12:23;;;;;;;2.33;1.51;;;;;;;20.47;39.13;100652.26;;;;-58
2020/02/23 16:15:22;;;;;;;2.19;1.51;;;;;;;20.46;39.10;100648.58;;;;-58
2020/02/23 16:18:22;;;;;;;2.67;1.55;;;;;;;20.46;39.09;100645.23;;;;-58
2020/02/23 16:21:22;;;;;;;2.43;1.48;;;;;;;20.45;39.12;100651.16;;;;-58
2020/02/23 16:24:22;;;;;;;2.55;1.57;;;;;;;20.46;39.01;100643.72;;;;-58
2020/02/23 16:27:22;;;;;;;3.54;1.50;;;;;;;20.45;39.31;100645.86;;;;-52
2020/02/23 16:30:23;;;;;;;2.37;1.40;;;;;;;20.46;39.63;100649.92;;;;-56
2020/02/23 16:33:23;;;;;;;2.99;1.40;;;;;;;20.47;39.62;100648.80;;;;-60
2020/02/23 16:36:23;;;;;;;2.96;1.55;;;;;;;20.47;39.48;100661.20;;;;-51
2020/02/23 16:39:23;;;;;;;3.38;1.51;;;;;;;20.49;39.50;100662.20;;;;-58
2020/02/23 16:42:23;;;;;;;5.53;1.59;;;;;;;20.48;39.55;100669.04;;;;-57
2020/02/23 16:45:22;;;;;;;5.46;1.62;;;;;;;20.49;39.66;100684.02;;;;-51
2020/02/23 16:48:22;;;;;;;3.91;1.50;;;;;;;20.51;39.78;100692.39;;;;-54